sensor_id;sensor_type;location;lat;lon;timestamp;temperature;humidity
30764;DHT22;17497;51.476;7.770;2022-12-10T00:01:17;0.40;99.90
30764;DHT22;17497;51.476;7.770;2022-12-10T00:03:45;0.40;99.90
30764;DHT22;17497;51.476;7.770;2022-12-10T00:06:20;0.50;99.90
30764;DHT22;17497;51.476;7.770;2022-12-10T00:08:47;0.60;99.90
30764;DHT22;17497;51.476;7.770;2022-12-10T00:11:15;0.60;99.90
30764;DHT22;17497;51.476;7.770;2022-12-10T00:13:43;0.50;99.90
30764;DHT22;17497;51.476;7.770;2022-12-10T00:16:11;0.60;99.90
30764;DHT22;17497;51.476;7.770;2022-12-10T00:18:38;0.60;99.90
30764;DHT22;17497;51.476;7.770;2022-12-10T00:21:08;0.60;99.90
30764;DHT22;17497;51.476;7.770;2022-12-10T00:23:35;0.60;99.90
30764;DHT22;17497;51.476;7.770;2022-12-10T00:26:13;0.60;99.90
30764;DHT22;17497;51.476;7.770;2022-12-10T00:28:43;0.60;99.90
30764;DHT22;17497;51.476;7.770;2022-12-10T00:31:17;0.60;99.90
30764;DHT22;17497;51.476;7.770;2022-12-10T00:33:45;0.60;99.90
30764;DHT22;17497;51.476;7.770;2022-12-10T00:36:14;0.60;99.90
30764;DHT22;17497;51.476;7.770;2022-12-10T00:38:42;0.60;99.90
30764;DHT22;17497;51.476;7.770;2022-12-10T00:41:10;0.60;99.90
30764;DHT22;17497;51.476;7.770;2022-12-10T00:43:37;0.60;99.90
30764;DHT22;17497;51.476;7.770;2022-12-10T00:46:04;0.60;99.90
30764;DHT22;17497;51.476;7.770;2022-12-10T00:48:31;0.60;99.90
30764;DHT22;17497;51.476;7.770;2022-12-10T00:51:04;0.70;99.90
30764;DHT22;17497;51.476;7.770;2022-12-10T00:53:32;0.70;99.90
30764;DHT22;17497;51.476;7.770;2022-12-10T00:56:00;0.70;99.90
30764;DHT22;17497;51.476;7.770;2022-12-10T00:58:32;0.80;99.90
30764;DHT22;17497;51.476;7.770;2022-12-10T01:01:23;0.80;99.90
30764;DHT22;17497;51.476;7.770;2022-12-10T01:03:55;0.80;99.90
30764;DHT22;17497;51.476;7.770;2022-12-10T01:06:25;0.80;99.90
30764;DHT22;17497;51.476;7.770;2022-12-10T01:08:55;0.80;99.90
30764;DHT22;17497;51.476;7.770;2022-12-10T01:11:25;0.80;99.90
30764;DHT22;17497;51.476;7.770;2022-12-10T01:13:52;0.70;99.90
30764;DHT22;17497;51.476;7.770;2022-12-10T01:16:21;0.70;99.90
30764;DHT22;17497;51.476;7.770;2022-12-10T01:18:55;0.70;99.90
30764;DHT22;17497;51.476;7.770;2022-12-10T01:21:26;0.60;99.90
30764;DHT22;17497;51.476;7.770;2022-12-10T01:23:53;0.60;99.90
30764;DHT22;17497;51.476;7.770;2022-12-10T01:26:23;0.70;99.90
30764;DHT22;17497;51.476;7.770;2022-12-10T01:28:51;0.70;99.90
30764;DHT22;17497;51.476;7.770;2022-12-10T01:31:30;0.70;99.90
30764;DHT22;17497;51.476;7.770;2022-12-10T01:33:57;0.70;99.90
30764;DHT22;17497;51.476;7.770;2022-12-10T01:36:30;0.70;99.90
30764;DHT22;17497;51.476;7.770;2022-12-10T01:38:58;0.70;99.90
30764;DHT22;17497;51.476;7.770;2022-12-10T01:41:28;0.80;99.90
30764;DHT22;17497;51.476;7.770;2022-12-10T01:44:00;0.90;99.90
30764;DHT22;17497;51.476;7.770;2022-12-10T01:46:30;0.60;99.90
30764;DHT22;17497;51.476;7.770;2022-12-10T01:48:58;0.60;99.90
30764;DHT22;17497;51.476;7.770;2022-12-10T01:51:28;0.60;99.90
30764;DHT22;17497;51.476;7.770;2022-12-10T01:53:56;0.70;99.90
30764;DHT22;17497;51.476;7.770;2022-12-10T01:56:23;0.70;99.90
30764;DHT22;17497;51.476;7.770;2022-12-10T01:58:53;0.80;99.90
30764;DHT22;17497;51.476;7.770;2022-12-10T02:01:24;0.90;99.90
30764;DHT22;17497;51.476;7.770;2022-12-10T02:04:10;0.80;99.90
30764;DHT22;17497;51.476;7.770;2022-12-10T02:07:00;0.70;99.90
30764;DHT22;17497;51.476;7.770;2022-12-10T02:09:36;0.50;99.90
30764;DHT22;17497;51.476;7.770;2022-12-10T02:12:14;0.60;99.90
30764;DHT22;17497;51.476;7.770;2022-12-10T02:17:43;0.50;99.90
30764;DHT22;17497;51.476;7.770;2022-12-10T02:20:24;0.60;99.90
30764;DHT22;17497;51.476;7.770;2022-12-10T02:22:56;0.70;99.90
30764;DHT22;17497;51.476;7.770;2022-12-10T02:25:53;0.80;99.90
30764;DHT22;17497;51.476;7.770;2022-12-10T02:28:31;0.90;99.90
30764;DHT22;17497;51.476;7.770;2022-12-10T02:31:00;0.90;99.90
30764;DHT22;17497;51.476;7.770;2022-12-10T02:33:29;0.80;99.90
30764;DHT22;17497;51.476;7.770;2022-12-10T02:35:57;0.70;99.90
30764;DHT22;17497;51.476;7.770;2022-12-10T02:38:32;0.70;99.90
30764;DHT22;17497;51.476;7.770;2022-12-10T02:43:35;0.70;99.90
30764;DHT22;17497;51.476;7.770;2022-12-10T02:46:04;0.70;99.90
30764;DHT22;17497;51.476;7.770;2022-12-10T02:48:32;0.70;99.90
30764;DHT22;17497;51.476;7.770;2022-12-10T02:51:00;0.70;99.90
30764;DHT22;17497;51.476;7.770;2022-12-10T02:53:27;0.80;99.90
30764;DHT22;17497;51.476;7.770;2022-12-10T02:56:03;0.80;99.90
30764;DHT22;17497;51.476;7.770;2022-12-10T03:04:00;0.80;99.90
30764;DHT22;17497;51.476;7.770;2022-12-10T03:06:36;0.80;99.90
30764;DHT22;17497;51.476;7.770;2022-12-10T03:09:08;0.80;99.90
30764;DHT22;17497;51.476;7.770;2022-12-10T03:11:36;0.80;99.90
30764;DHT22;17497;51.476;7.770;2022-12-10T03:14:22;0.90;99.90
30764;DHT22;17497;51.476;7.770;2022-12-10T03:16:55;1.00;99.90
30764;DHT22;17497;51.476;7.770;2022-12-10T03:19:28;0.90;99.90
30764;DHT22;17497;51.476;7.770;2022-12-10T03:21:57;0.90;99.90
30764;DHT22;17497;51.476;7.770;2022-12-10T03:24:26;0.90;99.90
30764;DHT22;17497;51.476;7.770;2022-12-10T03:26:53;0.90;99.90
30764;DHT22;17497;51.476;7.770;2022-12-10T03:29:24;0.90;99.90
30764;DHT22;17497;51.476;7.770;2022-12-10T03:31:53;0.90;99.90
30764;DHT22;17497;51.476;7.770;2022-12-10T03:34:21;0.90;99.90
30764;DHT22;17497;51.476;7.770;2022-12-10T03:36:48;0.90;99.90
30764;DHT22;17497;51.476;7.770;2022-12-10T03:39:16;0.90;99.90
30764;DHT22;17497;51.476;7.770;2022-12-10T03:41:43;0.90;99.90
30764;DHT22;17497;51.476;7.770;2022-12-10T03:44:10;0.90;99.90
30764;DHT22;17497;51.476;7.770;2022-12-10T03:46:36;0.90;99.90
30764;DHT22;17497;51.476;7.770;2022-12-10T03:49:04;1.10;99.90
30764;DHT22;17497;51.476;7.770;2022-12-10T03:51:31;1.20;99.90
30764;DHT22;17497;51.476;7.770;2022-12-10T03:53:57;1.20;99.90
30764;DHT22;17497;51.476;7.770;2022-12-10T03:56:24;1.10;99.90
30764;DHT22;17497;51.476;7.770;2022-12-10T03:58:51;1.00;99.90
30764;DHT22;17497;51.476;7.770;2022-12-10T04:01:17;1.00;99.90
30764;DHT22;17497;51.476;7.770;2022-12-10T04:03:44;0.90;99.90
30764;DHT22;17497;51.476;7.770;2022-12-10T04:06:17;0.60;99.90
30764;DHT22;17497;51.476;7.770;2022-12-10T04:08:44;0.60;99.90
30764;DHT22;17497;51.476;7.770;2022-12-10T04:11:12;0.70;99.90
30764;DHT22;17497;51.476;7.770;2022-12-10T04:13:40;0.70;99.90
30764;DHT22;17497;51.476;7.770;2022-12-10T04:16:27;0.80;99.90
30764;DHT22;17497;51.476;7.770;2022-12-10T04:19:00;0.80;99.90
30764;DHT22;17497;51.476;7.770;2022-12-10T04:21:28;0.90;99.90
30764;DHT22;17497;51.476;7.770;2022-12-10T04:24:15;0.80;99.90
30764;DHT22;17497;51.476;7.770;2022-12-10T04:27:11;0.70;99.90
30764;DHT22;17497;51.476;7.770;2022-12-10T04:32:24;0.60;99.90
30764;DHT22;17497;51.476;7.770;2022-12-10T04:34:52;0.60;99.90
30764;DHT22;17497;51.476;7.770;2022-12-10T04:37:18;0.80;99.90
30764;DHT22;17497;51.476;7.770;2022-12-10T04:39:46;0.80;99.90
30764;DHT22;17497;51.476;7.770;2022-12-10T04:42:13;0.80;99.90
30764;DHT22;17497;51.476;7.770;2022-12-10T04:44:40;0.70;99.90
30764;DHT22;17497;51.476;7.770;2022-12-10T04:47:08;0.80;99.90
30764;DHT22;17497;51.476;7.770;2022-12-10T04:49:36;0.80;99.90
30764;DHT22;17497;51.476;7.770;2022-12-10T04:52:03;0.80;99.90
30764;DHT22;17497;51.476;7.770;2022-12-10T04:54:30;0.80;99.90
30764;DHT22;17497;51.476;7.770;2022-12-10T04:57:05;0.80;99.90
30764;DHT22;17497;51.476;7.770;2022-12-10T04:59:32;0.80;99.90
30764;DHT22;17497;51.476;7.770;2022-12-10T05:01:58;0.80;99.90
30764;DHT22;17497;51.476;7.770;2022-12-10T05:04:25;0.80;99.90
30764;DHT22;17497;51.476;7.770;2022-12-10T05:06:52;0.90;99.90
30764;DHT22;17497;51.476;7.770;2022-12-10T05:09:19;0.90;99.90
30764;DHT22;17497;51.476;7.770;2022-12-10T05:11:45;0.90;99.90
30764;DHT22;17497;51.476;7.770;2022-12-10T05:14:13;0.90;99.90
30764;DHT22;17497;51.476;7.770;2022-12-10T05:16:41;0.90;99.90
30764;DHT22;17497;51.476;7.770;2022-12-10T05:19:09;0.90;99.90
30764;DHT22;17497;51.476;7.770;2022-12-10T05:21:35;0.80;99.90
30764;DHT22;17497;51.476;7.770;2022-12-10T05:24:21;0.80;99.90
30764;DHT22;17497;51.476;7.770;2022-12-10T05:26:48;0.80;99.90
30764;DHT22;17497;51.476;7.770;2022-12-10T05:29:17;0.80;99.90
30764;DHT22;17497;51.476;7.770;2022-12-10T05:31:44;0.70;99.90
30764;DHT22;17497;51.476;7.770;2022-12-10T05:34:11;0.70;99.90
30764;DHT22;17497;51.476;7.770;2022-12-10T05:36:38;0.70;99.90
30764;DHT22;17497;51.476;7.770;2022-12-10T05:39:05;0.70;99.90
30764;DHT22;17497;51.476;7.770;2022-12-10T05:41:35;0.70;99.90
30764;DHT22;17497;51.476;7.770;2022-12-10T05:44:03;0.70;99.90
30764;DHT22;17497;51.476;7.770;2022-12-10T05:46:31;0.70;99.90
30764;DHT22;17497;51.476;7.770;2022-12-10T05:48:59;0.80;99.90
30764;DHT22;17497;51.476;7.770;2022-12-10T05:51:29;0.80;99.90
30764;DHT22;17497;51.476;7.770;2022-12-10T05:53:57;0.80;99.90
30764;DHT22;17497;51.476;7.770;2022-12-10T05:56:25;0.80;99.90
30764;DHT22;17497;51.476;7.770;2022-12-10T05:58:55;0.90;99.90
30764;DHT22;17497;51.476;7.770;2022-12-10T06:01:25;0.80;99.90
30764;DHT22;17497;51.476;7.770;2022-12-10T06:03:52;0.80;99.90
30764;DHT22;17497;51.476;7.770;2022-12-10T06:06:22;0.90;99.90
30764;DHT22;17497;51.476;7.770;2022-12-10T06:08:50;0.90;99.90
30764;DHT22;17497;51.476;7.770;2022-12-10T06:11:17;0.80;99.90
30764;DHT22;17497;51.476;7.770;2022-12-10T06:13:44;0.70;99.90
30764;DHT22;17497;51.476;7.770;2022-12-10T06:16:12;0.60;99.90
30764;DHT22;17497;51.476;7.770;2022-12-10T06:18:39;0.60;99.90
30764;DHT22;17497;51.476;7.770;2022-12-10T06:21:08;0.60;99.90
30764;DHT22;17497;51.476;7.770;2022-12-10T06:23:36;0.70;99.90
30764;DHT22;17497;51.476;7.770;2022-12-10T06:26:11;0.60;99.90
30764;DHT22;17497;51.476;7.770;2022-12-10T06:28:38;0.60;99.90
30764;DHT22;17497;51.476;7.770;2022-12-10T06:31:06;0.70;99.90
30764;DHT22;17497;51.476;7.770;2022-12-10T06:33:33;0.80;99.90
30764;DHT22;17497;51.476;7.770;2022-12-10T06:35:59;0.90;99.90
30764;DHT22;17497;51.476;7.770;2022-12-10T06:38:28;0.90;99.90
30764;DHT22;17497;51.476;7.770;2022-12-10T06:40:55;0.90;99.90
30764;DHT22;17497;51.476;7.770;2022-12-10T06:43:22;1.00;99.90
30764;DHT22;17497;51.476;7.770;2022-12-10T06:45:48;1.10;99.90
30764;DHT22;17497;51.476;7.770;2022-12-10T06:48:15;1.00;99.90
30764;DHT22;17497;51.476;7.770;2022-12-10T06:50:42;0.80;99.90
30764;DHT22;17497;51.476;7.770;2022-12-10T06:53:08;0.80;99.90
30764;DHT22;17497;51.476;7.770;2022-12-10T06:55:36;0.80;99.90
30764;DHT22;17497;51.476;7.770;2022-12-10T06:58:04;0.80;99.90
30764;DHT22;17497;51.476;7.770;2022-12-10T07:00:31;0.80;99.90
30764;DHT22;17497;51.476;7.770;2022-12-10T07:02:58;0.90;99.90
30764;DHT22;17497;51.476;7.770;2022-12-10T07:05:25;0.90;99.90
30764;DHT22;17497;51.476;7.770;2022-12-10T07:07:52;0.90;99.90
30764;DHT22;17497;51.476;7.770;2022-12-10T07:10:18;0.90;99.90
30764;DHT22;17497;51.476;7.770;2022-12-10T07:12:45;0.90;99.90
30764;DHT22;17497;51.476;7.770;2022-12-10T07:15:12;0.90;99.90
30764;DHT22;17497;51.476;7.770;2022-12-10T07:17:38;0.90;99.90
30764;DHT22;17497;51.476;7.770;2022-12-10T07:20:05;1.00;99.90
30764;DHT22;17497;51.476;7.770;2022-12-10T07:22:33;1.10;99.90
30764;DHT22;17497;51.476;7.770;2022-12-10T07:24:59;1.00;99.90
30764;DHT22;17497;51.476;7.770;2022-12-10T07:27:26;1.10;99.90
30764;DHT22;17497;51.476;7.770;2022-12-10T07:29:54;1.00;99.90
30764;DHT22;17497;51.476;7.770;2022-12-10T07:32:20;0.90;99.90
30764;DHT22;17497;51.476;7.770;2022-12-10T07:34:47;0.90;99.90
30764;DHT22;17497;51.476;7.770;2022-12-10T07:37:13;1.00;99.90
30764;DHT22;17497;51.476;7.770;2022-12-10T07:39:40;1.00;99.90
30764;DHT22;17497;51.476;7.770;2022-12-10T07:42:09;1.00;99.90
30764;DHT22;17497;51.476;7.770;2022-12-10T07:44:35;0.80;99.90
30764;DHT22;17497;51.476;7.770;2022-12-10T07:47:02;0.80;99.90
30764;DHT22;17497;51.476;7.770;2022-12-10T07:49:29;0.70;99.90
30764;DHT22;17497;51.476;7.770;2022-12-10T07:51:56;0.70;99.90
30764;DHT22;17497;51.476;7.770;2022-12-10T07:54:23;0.70;99.90
30764;DHT22;17497;51.476;7.770;2022-12-10T07:56:49;0.80;99.90
30764;DHT22;17497;51.476;7.770;2022-12-10T07:59:16;0.90;99.90
30764;DHT22;17497;51.476;7.770;2022-12-10T08:01:43;0.90;99.90
30764;DHT22;17497;51.476;7.770;2022-12-10T08:04:10;1.00;99.90
30764;DHT22;17497;51.476;7.770;2022-12-10T08:06:36;0.90;99.90
30764;DHT22;17497;51.476;7.770;2022-12-10T08:09:03;0.90;99.90
30764;DHT22;17497;51.476;7.770;2022-12-10T08:11:30;0.80;99.90
30764;DHT22;17497;51.476;7.770;2022-12-10T08:13:57;0.70;99.90
30764;DHT22;17497;51.476;7.770;2022-12-10T08:16:25;0.60;99.90
30764;DHT22;17497;51.476;7.770;2022-12-10T08:18:54;0.60;99.90
30764;DHT22;17497;51.476;7.770;2022-12-10T08:21:23;0.60;99.90
30764;DHT22;17497;51.476;7.770;2022-12-10T08:23:50;0.60;99.90
30764;DHT22;17497;51.476;7.770;2022-12-10T08:26:19;0.70;99.90
30764;DHT22;17497;51.476;7.770;2022-12-10T08:28:47;0.60;99.90
30764;DHT22;17497;51.476;7.770;2022-12-10T08:31:15;0.60;99.90
30764;DHT22;17497;51.476;7.770;2022-12-10T08:33:42;0.60;99.90
30764;DHT22;17497;51.476;7.770;2022-12-10T08:36:12;0.60;99.90
30764;DHT22;17497;51.476;7.770;2022-12-10T08:38:40;0.60;99.90
30764;DHT22;17497;51.476;7.770;2022-12-10T08:41:11;0.60;99.90
30764;DHT22;17497;51.476;7.770;2022-12-10T08:43:38;0.60;99.90
30764;DHT22;17497;51.476;7.770;2022-12-10T08:46:05;0.60;99.90
30764;DHT22;17497;51.476;7.770;2022-12-10T08:48:32;0.50;99.90
30764;DHT22;17497;51.476;7.770;2022-12-10T08:51:00;0.40;99.90
30764;DHT22;17497;51.476;7.770;2022-12-10T08:53:26;0.40;99.90
30764;DHT22;17497;51.476;7.770;2022-12-10T08:56:25;0.20;99.90
30764;DHT22;17497;51.476;7.770;2022-12-10T08:59:06;0.20;99.90
30764;DHT22;17497;51.476;7.770;2022-12-10T09:01:33;0.30;99.90
30764;DHT22;17497;51.476;7.770;2022-12-10T09:04:12;0.20;99.90
30764;DHT22;17497;51.476;7.770;2022-12-10T09:06:39;0.30;99.90
30764;DHT22;17497;51.476;7.770;2022-12-10T09:09:06;0.30;99.90
30764;DHT22;17497;51.476;7.770;2022-12-10T09:11:34;0.30;99.90
30764;DHT22;17497;51.476;7.770;2022-12-10T09:14:01;0.30;99.90
30764;DHT22;17497;51.476;7.770;2022-12-10T09:16:33;0.30;99.90
30764;DHT22;17497;51.476;7.770;2022-12-10T09:19:00;0.30;99.90
30764;DHT22;17497;51.476;7.770;2022-12-10T09:21:27;0.40;99.90
30764;DHT22;17497;51.476;7.770;2022-12-10T09:23:54;0.50;99.90
30764;DHT22;17497;51.476;7.770;2022-12-10T09:26:21;0.60;99.90
30764;DHT22;17497;51.476;7.770;2022-12-10T09:28:48;0.50;99.90
30764;DHT22;17497;51.476;7.770;2022-12-10T09:31:17;0.40;99.90
30764;DHT22;17497;51.476;7.770;2022-12-10T09:33:47;0.30;99.90
30764;DHT22;17497;51.476;7.770;2022-12-10T09:36:14;0.30;99.90
30764;DHT22;17497;51.476;7.770;2022-12-10T09:38:43;0.30;99.90
30764;DHT22;17497;51.476;7.770;2022-12-10T09:44:00;0.30;99.90
30764;DHT22;17497;51.476;7.770;2022-12-10T09:46:51;0.30;99.90
30764;DHT22;17497;51.476;7.770;2022-12-10T09:52:13;0.60;99.90
30764;DHT22;17497;51.476;7.770;2022-12-10T09:54:44;0.80;99.90
30764;DHT22;17497;51.476;7.770;2022-12-10T09:57:29;0.90;99.90
30764;DHT22;17497;51.476;7.770;2022-12-10T10:00:09;1.00;99.90
30764;DHT22;17497;51.476;7.770;2022-12-10T10:02:42;1.10;99.90
30764;DHT22;17497;51.476;7.770;2022-12-10T10:07:38;1.00;99.90
30764;DHT22;17497;51.476;7.770;2022-12-10T10:10:13;1.00;99.90
30764;DHT22;17497;51.476;7.770;2022-12-10T10:12:45;1.10;99.90
30764;DHT22;17497;51.476;7.770;2022-12-10T10:15:15;1.10;99.90
30764;DHT22;17497;51.476;7.770;2022-12-10T10:17:43;1.20;99.90
30764;DHT22;17497;51.476;7.770;2022-12-10T10:20:13;1.20;99.90
30764;DHT22;17497;51.476;7.770;2022-12-10T10:22:40;1.00;99.90
30764;DHT22;17497;51.476;7.770;2022-12-10T10:25:18;1.00;99.90
30764;DHT22;17497;51.476;7.770;2022-12-10T10:27:45;1.00;99.90
30764;DHT22;17497;51.476;7.770;2022-12-10T10:30:17;1.00;99.90
30764;DHT22;17497;51.476;7.770;2022-12-10T10:32:48;1.10;99.90
30764;DHT22;17497;51.476;7.770;2022-12-10T10:37:49;1.00;99.90
30764;DHT22;17497;51.476;7.770;2022-12-10T10:40:41;1.00;99.90
30764;DHT22;17497;51.476;7.770;2022-12-10T10:43:30;1.10;99.90
30764;DHT22;17497;51.476;7.770;2022-12-10T10:45:58;1.10;99.90
30764;DHT22;17497;51.476;7.770;2022-12-10T10:48:28;1.00;99.90
30764;DHT22;17497;51.476;7.770;2022-12-10T10:51:13;1.10;99.90
30764;DHT22;17497;51.476;7.770;2022-12-10T10:53:47;1.20;99.90
30764;DHT22;17497;51.476;7.770;2022-12-10T10:56:15;1.20;99.90
30764;DHT22;17497;51.476;7.770;2022-12-10T10:59:35;1.20;99.90
30764;DHT22;17497;51.476;7.770;2022-12-10T11:01:51;1.10;99.90
30764;DHT22;17497;51.476;7.770;2022-12-10T11:04:29;1.20;99.90
30764;DHT22;17497;51.476;7.770;2022-12-10T11:07:01;1.20;99.90
30764;DHT22;17497;51.476;7.770;2022-12-10T11:09:30;1.20;99.90
30764;DHT22;17497;51.476;7.770;2022-12-10T11:12:04;1.30;99.90
30764;DHT22;17497;51.476;7.770;2022-12-10T11:14:32;1.40;99.90
30764;DHT22;17497;51.476;7.770;2022-12-10T11:19:54;1.50;99.90
30764;DHT22;17497;51.476;7.770;2022-12-10T11:22:30;1.50;99.90
30764;DHT22;17497;51.476;7.770;2022-12-10T11:24:58;1.50;99.90
30764;DHT22;17497;51.476;7.770;2022-12-10T11:30:25;1.30;99.90
30764;DHT22;17497;51.476;7.770;2022-12-10T11:33:26;1.50;99.90
30764;DHT22;17497;51.476;7.770;2022-12-10T11:38:45;1.40;99.90
30764;DHT22;17497;51.476;7.770;2022-12-10T12:06:06;1.50;99.90
30764;DHT22;17497;51.476;7.770;2022-12-10T12:11:32;1.50;99.90
30764;DHT22;17497;51.476;7.770;2022-12-10T12:14:14;1.60;99.90
30764;DHT22;17497;51.476;7.770;2022-12-10T12:17:07;1.60;99.90
30764;DHT22;17497;51.476;7.770;2022-12-10T12:19:47;1.60;99.90
30764;DHT22;17497;51.476;7.770;2022-12-10T12:22:39;1.60;99.90
30764;DHT22;17497;51.476;7.770;2022-12-10T12:25:17;1.50;99.90
30764;DHT22;17497;51.476;7.770;2022-12-10T12:28:04;1.50;99.90
30764;DHT22;17497;51.476;7.770;2022-12-10T12:30:34;1.50;99.90
30764;DHT22;17497;51.476;7.770;2022-12-10T12:33:31;1.50;99.90
30764;DHT22;17497;51.476;7.770;2022-12-10T12:36:20;1.60;99.90
30764;DHT22;17497;51.476;7.770;2022-12-10T12:38:56;1.60;99.90
30764;DHT22;17497;51.476;7.770;2022-12-10T12:47:02;1.40;99.90
30764;DHT22;17497;51.476;7.770;2022-12-10T12:49:34;1.30;99.90
30764;DHT22;17497;51.476;7.770;2022-12-10T12:54:49;1.40;99.90
30764;DHT22;17497;51.476;7.770;2022-12-10T13:00:03;1.70;99.90
30764;DHT22;17497;51.476;7.770;2022-12-10T13:02:46;1.70;99.90
30764;DHT22;17497;51.476;7.770;2022-12-10T13:05:20;1.70;99.90
30764;DHT22;17497;51.476;7.770;2022-12-10T13:30:01;1.60;99.90
30764;DHT22;17497;51.476;7.770;2022-12-10T13:42:58;1.80;99.90
30764;DHT22;17497;51.476;7.770;2022-12-10T13:45:44;1.70;99.90
30764;DHT22;17497;51.476;7.770;2022-12-10T13:48:26;1.70;99.90
30764;DHT22;17497;51.476;7.770;2022-12-10T13:51:04;1.80;99.90
30764;DHT22;17497;51.476;7.770;2022-12-10T13:53:57;1.90;99.90
30764;DHT22;17497;51.476;7.770;2022-12-10T13:56:29;1.80;99.90
30764;DHT22;17497;51.476;7.770;2022-12-10T14:05:12;1.70;99.90
30764;DHT22;17497;51.476;7.770;2022-12-10T14:07:19;1.70;99.90
30764;DHT22;17497;51.476;7.770;2022-12-10T14:09:50;1.80;99.90
30764;DHT22;17497;51.476;7.770;2022-12-10T14:12:25;1.90;99.90
30764;DHT22;17497;51.476;7.770;2022-12-10T14:14:55;1.70;99.90
30764;DHT22;17497;51.476;7.770;2022-12-10T14:17:36;1.70;99.90
30764;DHT22;17497;51.476;7.770;2022-12-10T14:20:07;1.70;99.90
30764;DHT22;17497;51.476;7.770;2022-12-10T14:22:49;1.70;99.90
30764;DHT22;17497;51.476;7.770;2022-12-10T14:25:21;1.70;99.90
30764;DHT22;17497;51.476;7.770;2022-12-10T14:27:52;1.60;99.90
30764;DHT22;17497;51.476;7.770;2022-12-10T14:30:22;1.50;99.90
30764;DHT22;17497;51.476;7.770;2022-12-10T14:32:50;1.50;99.90
30764;DHT22;17497;51.476;7.770;2022-12-10T14:35:23;1.50;99.90
30764;DHT22;17497;51.476;7.770;2022-12-10T14:37:53;1.50;99.90
30764;DHT22;17497;51.476;7.770;2022-12-10T14:43:02;1.50;99.90
30764;DHT22;17497;51.476;7.770;2022-12-10T14:45:45;1.40;99.90
30764;DHT22;17497;51.476;7.770;2022-12-10T14:48:14;1.50;99.90
30764;DHT22;17497;51.476;7.770;2022-12-10T14:50:46;1.50;99.90
30764;DHT22;17497;51.476;7.770;2022-12-10T14:53:22;1.60;99.90
30764;DHT22;17497;51.476;7.770;2022-12-10T14:56:01;1.70;99.90
30764;DHT22;17497;51.476;7.770;2022-12-10T14:58:50;1.60;99.90
30764;DHT22;17497;51.476;7.770;2022-12-10T15:01:31;1.60;99.90
30764;DHT22;17497;51.476;7.770;2022-12-10T15:04:01;1.50;99.90
30764;DHT22;17497;51.476;7.770;2022-12-10T15:06:34;1.30;99.90
30764;DHT22;17497;51.476;7.770;2022-12-10T15:09:03;1.20;99.90
30764;DHT22;17497;51.476;7.770;2022-12-10T15:11:30;1.20;99.90
30764;DHT22;17497;51.476;7.770;2022-12-10T15:13:59;1.10;99.90
30764;DHT22;17497;51.476;7.770;2022-12-10T15:16:42;1.10;99.90
30764;DHT22;17497;51.476;7.770;2022-12-10T15:19:31;1.10;99.90
30764;DHT22;17497;51.476;7.770;2022-12-10T15:22:19;1.10;99.90
30764;DHT22;17497;51.476;7.770;2022-12-10T15:24:47;1.20;99.90
30764;DHT22;17497;51.476;7.770;2022-12-10T15:27:19;1.30;99.90
30764;DHT22;17497;51.476;7.770;2022-12-10T15:29:47;1.20;99.90
30764;DHT22;17497;51.476;7.770;2022-12-10T15:32:20;1.20;99.90
30764;DHT22;17497;51.476;7.770;2022-12-10T15:34:54;1.00;99.90
30764;DHT22;17497;51.476;7.770;2022-12-10T15:37:27;0.90;99.90
30764;DHT22;17497;51.476;7.770;2022-12-10T15:39:58;0.90;99.90
30764;DHT22;17497;51.476;7.770;2022-12-10T15:45:24;0.90;99.90
30764;DHT22;17497;51.476;7.770;2022-12-10T15:47:57;1.00;99.90
30764;DHT22;17497;51.476;7.770;2022-12-10T15:50:25;1.00;99.90
30764;DHT22;17497;51.476;7.770;2022-12-10T15:52:52;1.00;99.90
30764;DHT22;17497;51.476;7.770;2022-12-10T15:55:19;1.00;99.90
30764;DHT22;17497;51.476;7.770;2022-12-10T15:57:46;1.00;99.90
30764;DHT22;17497;51.476;7.770;2022-12-10T16:00:24;1.00;99.90
30764;DHT22;17497;51.476;7.770;2022-12-10T16:03:01;1.00;99.90
30764;DHT22;17497;51.476;7.770;2022-12-10T16:05:33;1.00;99.90
30764;DHT22;17497;51.476;7.770;2022-12-10T16:08:15;1.10;99.90
30764;DHT22;17497;51.476;7.770;2022-12-10T16:10:44;1.10;99.90
30764;DHT22;17497;51.476;7.770;2022-12-10T16:13:18;1.20;99.90
30764;DHT22;17497;51.476;7.770;2022-12-10T16:15:57;1.10;99.90
30764;DHT22;17497;51.476;7.770;2022-12-10T16:18:24;1.10;99.90
30764;DHT22;17497;51.476;7.770;2022-12-10T16:20:59;1.10;99.90
30764;DHT22;17497;51.476;7.770;2022-12-10T16:23:25;1.20;99.90
30764;DHT22;17497;51.476;7.770;2022-12-10T16:25:52;1.10;99.90
30764;DHT22;17497;51.476;7.770;2022-12-10T16:28:21;1.10;99.90
30764;DHT22;17497;51.476;7.770;2022-12-10T16:30:56;1.10;99.90
30764;DHT22;17497;51.476;7.770;2022-12-10T16:33:25;1.10;99.90
30764;DHT22;17497;51.476;7.770;2022-12-10T16:35:53;1.00;99.90
30764;DHT22;17497;51.476;7.770;2022-12-10T16:38:21;0.90;99.90
30764;DHT22;17497;51.476;7.770;2022-12-10T16:40:48;0.80;99.90
30764;DHT22;17497;51.476;7.770;2022-12-10T16:45:42;0.90;99.90
30764;DHT22;17497;51.476;7.770;2022-12-10T16:48:10;1.00;99.90
30764;DHT22;17497;51.476;7.770;2022-12-10T16:50:36;1.00;99.90
30764;DHT22;17497;51.476;7.770;2022-12-10T16:53:15;1.00;99.90
30764;DHT22;17497;51.476;7.770;2022-12-10T16:55:43;0.90;99.90
30764;DHT22;17497;51.476;7.770;2022-12-10T16:58:11;0.90;99.90
30764;DHT22;17497;51.476;7.770;2022-12-10T17:00:41;0.90;99.90
30764;DHT22;17497;51.476;7.770;2022-12-10T17:03:20;1.00;99.90
30764;DHT22;17497;51.476;7.770;2022-12-10T17:05:57;1.10;99.90
30764;DHT22;17497;51.476;7.770;2022-12-10T17:08:25;1.00;99.90
30764;DHT22;17497;51.476;7.770;2022-12-10T17:10:53;1.10;99.90
30764;DHT22;17497;51.476;7.770;2022-12-10T17:13:39;1.10;99.90
30764;DHT22;17497;51.476;7.770;2022-12-10T17:16:12;1.00;99.90
30764;DHT22;17497;51.476;7.770;2022-12-10T17:18:40;1.00;99.90
30764;DHT22;17497;51.476;7.770;2022-12-10T17:21:06;1.00;99.90
30764;DHT22;17497;51.476;7.770;2022-12-10T17:23:33;1.10;99.90
30764;DHT22;17497;51.476;7.770;2022-12-10T17:26:00;1.20;99.90
30764;DHT22;17497;51.476;7.770;2022-12-10T17:28:29;1.10;99.90
30764;DHT22;17497;51.476;7.770;2022-12-10T17:30:56;1.10;99.90
30764;DHT22;17497;51.476;7.770;2022-12-10T17:33:23;1.10;99.90
30764;DHT22;17497;51.476;7.770;2022-12-10T17:35:52;1.00;99.90
30764;DHT22;17497;51.476;7.770;2022-12-10T17:38:26;1.10;99.90
30764;DHT22;17497;51.476;7.770;2022-12-10T17:40:53;1.10;99.90
30764;DHT22;17497;51.476;7.770;2022-12-10T17:43:20;1.10;99.90
30764;DHT22;17497;51.476;7.770;2022-12-10T17:45:47;1.10;99.90
30764;DHT22;17497;51.476;7.770;2022-12-10T17:48:16;1.00;99.90
30764;DHT22;17497;51.476;7.770;2022-12-10T17:50:44;1.00;99.90
30764;DHT22;17497;51.476;7.770;2022-12-10T17:53:12;1.00;99.90
30764;DHT22;17497;51.476;7.770;2022-12-10T17:55:55;0.90;99.90
30764;DHT22;17497;51.476;7.770;2022-12-10T17:58:23;1.00;99.90
30764;DHT22;17497;51.476;7.770;2022-12-10T18:00:51;1.10;99.90
30764;DHT22;17497;51.476;7.770;2022-12-10T18:03:18;1.10;99.90
30764;DHT22;17497;51.476;7.770;2022-12-10T18:05:45;1.20;99.90
30764;DHT22;17497;51.476;7.770;2022-12-10T18:08:16;1.20;99.90